• Join FlightAware (Why Join?)
  • Login
  • US Flag 
10:31AM EDT


 

Airport Tracker/Info


-or-


 

Live Flight TrackerFlight Track Log ✈ N146TS ✈ 16-Jun-2013 ✈ KDDH - KDXR

Flight Track Log - Related Links

Times and Time Zones

All times are in EDT time to prevent confusion due to time zone crossing. See the N146TS flight status page for this flight to view local times or setup timezone preferences in your user account.

Time Position Orientation Groundspeed Altitude Reporting Facility
EDT Latitude Longitude Course Direction KTS MPH feet Rate Location/Type
01:23PM 43.0408 -73.5792 187° South 105 121 2,500  Level Boston Center
01:24PM 43.0094 -73.5872 191° South 108 124 2,600 120 Climbing Boston Center
01:25PM 42.9822 -73.6036 204° Southwest 105 121 2,800 60 Climbing Boston Center
01:26PM 42.9550 -73.6089 188° South 105 121 2,800 -120 Level Boston Center
01:26PM 42.9258 -73.6169 191° South 111 128 2,600 -120 Descending Boston Center
01:27PM 42.9006 -73.6247 193° South 116 133 2,600 -240 Level Boston Center
01:28PM 42.6860 -73.2786 187° South  Level Estimated
01:28PM 42.8714 -73.6469 209° Southwest 114 131 2,200  Level Boston Center
01:29PM 42.8442 -73.6550 192° South 99 114 1,800 -480 Descending Boston Center
01:30PM 42.8169 -73.6600 188° South 101 116 1,300 -360 Descending Boston Center
01:32PM 42.7897 -73.6736 200° South 104 120 1,100 -180 Descending Boston Center
01:33PM 42.7583 -73.6872 198° South 100 115 1,000  Descending Boston Center
01:34PM 42.7331 -73.7008 202° Southwest 90 104 1,100  Climbing Boston Center
01:35PM 42.7100 -73.7089 194° South 91 105 1,100  Level Boston Center
01:36PM 42.6828 -73.7253 204° Southwest 98 113 1,100 -60 Level Boston Center
01:37PM 42.6617 -73.7444 214° Southwest 98 113 1,000  Descending Boston Center
01:38PM 42.6367 -73.7553 198° South 93 107 1,100  Climbing Boston Center
01:39PM 42.6114 -73.7661 198° South 92 106 1,000  Descending Boston Center
01:40PM 42.5864 -73.7628 174° South 92 106 1,100  Climbing Boston Center
01:41PM 42.5594 -73.7619 179° South 89 102 1,100  Level Boston Center
01:42PM 42.5344 -73.7672 189° South 90 104 1,100  Level Boston Center
01:43PM 42.5133 -73.7836 210° Southwest 105 121 1,100 -60 Level Boston Center
01:44PM 42.4883 -73.7886 188° South 98 113 1,000  Descending Boston Center
01:45PM 42.4569 -73.7825 172° South 98 113 1,100  Climbing Boston Center
01:46PM 42.4319 -73.7847 184° South 100 115 1,100  Level Boston Center
01:47PM 42.4031 -73.7783 171° South 98 113 1,100 -60 Level Boston Center
01:48PM 42.3983 -73.8036 256° West 115 132 1,000  Descending Boston Center
01:49PM 42.3756 -73.7947 164° South 90 104 1,100 180 Climbing Boston Center
01:50PM 42.3467 -73.7772 156° South 87 100 1,500 300 Climbing Boston Center
01:51PM 42.3322 -73.7628 144° Southeast 83 96 1,800 360 Climbing Boston Center
01:52PM 42.3075 -73.7511 161° South 74 85 2,300 360 Climbing Boston Center
01:53PM 42.2886 -73.7450 167° South 77 89 2,700 420 Climbing Boston Center
01:54PM 42.2636 -73.7389 170° South 79 91 3,200 360 Climbing Boston Center
01:55PM 42.2431 -73.7331 168° South 77 89 3,500 180 Climbing Boston Center
01:56PM 42.2161 -73.7239 166° South 102 117 3,600  Climbing Boston Center
01:57PM 42.1869 -73.7178 171° South 109 125 3,600  Level Boston Center
01:58PM 42.1578 -73.7061 163° South 107 123 3,600  Level Boston Center
01:59PM 42.1286 -73.6997 171° South 110 127 3,600  Level Boston Center
02:00PM 42.1058 -73.6939 169° South 114 131 3,600  Level Boston Center
02:01PM 42.0706 -73.6847 169° South 108 124 3,600  Level Boston Center
02:03PM 42.0382 -73.6739 166° South  Level FlightAware Approximate
02:10PM 41.8653 -73.6190 167° South  Level FlightAware Approximate
02:11PM 41.8406 -73.6115 167° South  Level FlightAware Approximate
02:12PM 41.8159 -73.6039 167° South  Level FlightAware Approximate
02:13PM 41.7911 -73.5964 167° South  Level FlightAware Approximate
02:14PM 41.7664 -73.5889 167° South  Level FlightAware Approximate
02:15PM 41.7417 -73.5814 167° South  Level FlightAware Approximate
02:16PM 41.7169 -73.5738 167° South  Level FlightAware Approximate
02:17PM 41.6922 -73.5663 167° South  Level FlightAware Approximate
02:18PM 41.6675 -73.5588 167° South  Level FlightAware Approximate
02:19PM 41.6427 -73.5513 167° South  Level FlightAware Approximate
02:20PM 41.6180 -73.5438 167° South  Level FlightAware Approximate
02:21PM 41.5933 -73.5363 167° South  Level FlightAware Approximate
02:22PM 41.5685 -73.5293 168° South  Level FlightAware Approximate
02:23PM 41.5437 -73.5225 168° South  Level FlightAware Approximate
02:24PM 41.5188 -73.5157 168° South  Level FlightAware Approximate
02:25PM 41.4940 -73.5089 168° South  Level FlightAware Approximate
02:26PM 41.4691 -73.5022 168° South  Level FlightAware Approximate
02:27PM 41.4443 -73.4954 168° South  Level FlightAware Approximate
02:28PM 41.4195 -73.4886 168° South  Level FlightAware Approximate
02:29PM 41.3948 -73.4808 159° South  Level FlightAware Approximate
02:30PM 41.3711 -73.4689 159° South  Level FlightAware Approximate
02:31PM 41.3667 -73.4667 159° South  Level FlightAware Approximate
02:32PM 41.3715 -73.4822 159° South  Level Estimated
02:33PM 41.3715 -73.4822 159° South  Level Estimated
02:34PM 41.3715 -73.4822 159° South  Level Estimated
02:35PM 41.3715 -73.4822 159° South  Level Estimated
02:36PM 41.3715 -73.4822 159° South  Level Estimated
02:37PM 41.3715 -73.4822 159° South  Level Estimated
02:38PM 41.3715 -73.4822 159° South  Level Estimated
02:39PM 41.3715 -73.4822 159° South  Level Estimated
02:40PM 41.3715 -73.4822 159° South  Level Estimated
02:41PM 41.3715 -73.4822 159° South  Level Estimated
02:42PM 41.3715 -73.4822 159° South  Level Estimated
02:43PM 41.3715 -73.4822 159° South  Level Estimated
02:44PM 41.3715 -73.4822 159° South  Level Estimated
02:45PM 41.3715 -73.4822 159° South  Level Estimated
02:46PM 41.3715 -73.4822 159° South  Level Estimated
02:47PM 41.3715 -73.4822 159° South  Level Estimated
02:48PM 41.3715 -73.4822 159° South  Level Estimated